Time;durP1;ratioP1;P1;durP2;ratioP2;P2;SDS_P1;SDS_P2;PMS_P1;PMS_P2;Temp;Humidity;BMP_temperature;BMP_pressure;BME280_temperature;BME280_humidity;BME280_pressure;Samples;Min_cycle;Max_cycle;Signal;HPM_P1;HPM_P2
2024/01/23 00:00:28;;;;;;;18.95;3.78;;;6.60;99.90;;;;;;5092075;28;20054;-62
2024/01/23 00:02:53;;;;;;;13.93;2.90;;;6.60;99.90;;;;;;5093120;28;20028;-62
2024/01/23 00:05:19;;;;;;;18.05;2.92;;;6.60;99.90;;;;;;5093242;28;20047;-62
2024/01/23 00:07:45;;;;;;;14.10;2.35;;;6.50;99.90;;;;;;5090931;28;20040;-62
2024/01/23 00:10:10;;;;;;;18.13;3.38;;;6.50;99.90;;;;;;5093137;28;20032;-62
2024/01/23 00:12:36;;;;;;;16.33;3.28;;;6.50;99.90;;;;;;5093103;28;20032;-62
2024/01/23 00:15:03;;;;;;;18.40;2.75;;;6.40;99.90;;;;;;5073333;28;20059;-62
2024/01/23 00:17:29;;;;;;;12.10;2.47;;;6.40;99.90;;;;;;5072694;28;20040;-62
2024/01/23 00:19:55;;;;;;;18.90;3.53;;;6.40;99.90;;;;;;5072565;28;20067;-62
2024/01/23 00:22:21;;;;;;;17.25;2.95;;;6.30;99.90;;;;;;5071441;28;20495;-62
2024/01/23 00:24:47;;;;;;;20.67;3.80;;;6.30;99.90;;;;;;5072453;28;20032;-61
2024/01/23 00:27:12;;;;;;;16.38;3.20;;;6.30;99.90;;;;;;5071324;28;20048;-62
2024/01/23 00:29:38;;;;;;;18.08;2.88;;;6.30;99.90;;;;;;5071012;28;20045;-61
2024/01/23 00:32:05;;;;;;;16.13;3.20;;;6.30;99.90;;;;;;5072260;28;20120;-61
2024/01/23 00:34:30;;;;;;;18.27;2.60;;;6.20;99.90;;;;;;5072432;28;20052;-62
2024/01/23 00:36:58;;;;;;;15.20;2.78;;;6.20;99.90;;;;;;5070829;28;20070;-62
2024/01/23 00:39:24;;;;;;;18.10;3.20;;;6.20;99.90;;;;;;5070947;28;20059;-61
2024/01/23 00:41:50;;;;;;;20.00;3.63;;;6.10;99.90;;;;;;5070937;28;20036;-62
2024/01/23 00:44:16;;;;;;;18.92;3.00;;;6.10;99.90;;;;;;5072297;28;20440;-62
2024/01/23 00:46:41;;;;;;;16.33;2.63;;;6.10;99.90;;;;;;5070612;28;20087;-61
2024/01/23 00:49:07;;;;;;;12.13;2.10;;;6.10;99.90;;;;;;5070818;28;20124;-61
2024/01/23 00:51:33;;;;;;;14.95;2.92;;;6.10;99.90;;;;;;5072270;28;20051;-62
2024/01/23 00:54:00;;;;;;;18.85;2.92;;;6.10;99.90;;;;;;5070735;28;20502;-61
2024/01/23 00:56:26;;;;;;;15.75;3.20;;;6.10;99.90;;;;;;5072350;28;20052;-62
2024/01/23 00:58:51;;;;;;;15.40;2.50;;;6.10;99.90;;;;;;5071640;28;20055;-61
2024/01/23 01:01:17;;;;;;;16.02;3.40;;;6.10;99.90;;;;;;5070696;28;20388;-62
2024/01/23 01:03:43;;;;;;;19.60;2.70;;;6.10;99.90;;;;;;5071699;28;20051;-61
2024/01/23 01:06:08;;;;;;;17.10;3.15;;;6.10;99.90;;;;;;5071885;28;20064;-61
2024/01/23 01:08:34;;;;;;;17.35;3.90;;;6.00;99.90;;;;;;5071866;28;20033;-61
2024/01/23 01:11:00;;;;;;;21.40;3.17;;;6.00;99.90;;;;;;5070098;28;20395;-61
2024/01/23 01:13:25;;;;;;;17.65;3.08;;;6.00;99.90;;;;;;5070349;28;20049;-61
2024/01/23 01:15:51;;;;;;;15.05;2.65;;;6.00;99.90;;;;;;5069942;28;20059;-62
2024/01/23 01:18:17;;;;;;;18.08;3.17;;;6.00;99.90;;;;;;5069993;28;20625;-62
2024/01/23 01:20:43;;;;;;;16.85;2.92;;;6.00;99.90;;;;;;5069421;28;20049;-61
2024/01/23 01:23:09;;;;;;;19.77;3.50;;;6.00;99.90;;;;;;5071333;28;20040;-62
2024/01/23 01:25:35;;;;;;;13.90;3.10;;;6.00;99.90;;;;;;5071437;28;20252;-61
2024/01/23 01:28:01;;;;;;;17.58;3.10;;;6.10;99.90;;;;;;5070814;28;20060;-61
2024/01/23 01:30:28;;;;;;;16.50;2.75;;;6.10;99.90;;;;;;5069568;28;20048;-61
2024/01/23 01:32:55;;;;;;;19.17;3.13;;;6.10;99.90;;;;;;5071307;28;20055;-61
2024/01/23 01:35:21;;;;;;;23.30;4.32;;;6.00;99.90;;;;;;5069573;28;20068;-62
2024/01/23 01:37:46;;;;;;;16.67;3.75;;;6.00;99.90;;;;;;5071220;28;20043;-62
2024/01/23 01:40:13;;;;;;;18.00;2.92;;;6.00;99.90;;;;;;5071246;28;20033;-62
2024/01/23 01:42:43;;;;;;;21.52;3.25;;;6.00;99.90;;;;;;5071139;28;20070;-61
2024/01/23 01:45:10;;;;;;;18.45;3.65;;;6.10;99.90;;;;;;5069737;28;20120;-61
2024/01/23 01:47:38;;;;;;;20.27;4.10;;;6.00;99.90;;;;;;5069782;28;20071;-62
2024/01/23 01:50:05;;;;;;;19.95;2.85;;;6.00;99.90;;;;;;5070715;28;20039;-62
2024/01/23 01:52:31;;;;;;;18.55;3.17;;;6.00;99.90;;;;;;5069710;28;20040;-62
2024/01/23 01:54:59;;;;;;;18.05;2.20;;;6.00;99.90;;;;;;5070715;28;20120;-61
2024/01/23 01:57:27;;;;;;;17.63;3.10;;;6.00;99.90;;;;;;5070785;28;20044;-61
2024/01/23 01:59:53;;;;;;;15.25;3.28;;;5.90;99.90;;;;;;5069532;28;20044;-61
2024/01/23 02:02:20;;;;;;;18.10;3.30;;;5.90;99.90;;;;;;5070567;28;20037;-62
2024/01/23 02:04:46;;;;;;;13.88;2.70;;;5.90;99.90;;;;;;5084616;28;20040;-62
2024/01/23 02:07:11;;;;;;;19.25;3.15;;;5.90;99.90;;;;;;5089620;28;20089;-62
2024/01/23 02:09:37;;;;;;;18.80;3.78;;;5.80;99.90;;;;;;5086946;28;20040;-62
2024/01/23 02:12:07;;;;;;;21.77;3.85;;;5.80;99.90;;;;;;5069146;28;20041;-61
2024/01/23 02:14:32;;;;;;;23.58;4.15;;;5.80;99.90;;;;;;5069351;28;20166;-62
2024/01/23 02:16:58;;;;;;;22.38;3.72;;;5.80;99.90;;;;;;5070738;28;20143;-61
2024/01/23 02:19:26;;;;;;;16.00;3.58;;;5.80;99.90;;;;;;5070552;28;20044;-61
2024/01/23 02:21:51;;;;;;;17.75;2.75;;;5.70;99.90;;;;;;5070670;28;20044;-61
2024/01/23 02:24:17;;;;;;;23.65;3.63;;;5.70;99.90;;;;;;5069328;28;20044;-61
2024/01/23 02:26:43;;;;;;;17.25;3.65;;;5.70;99.90;;;;;;5070571;28;20037;-62
2024/01/23 02:29:10;;;;;;;18.10;2.78;;;5.70;99.90;;;;;;5070218;28;20105;-61
2024/01/23 02:31:35;;;;;;;23.17;3.28;;;5.70;99.90;;;;;;5075261;28;20040;-62
2024/01/23 02:34:01;;;;;;;17.90;3.55;;;5.70;99.90;;;;;;5077218;28;20119;-62
2024/01/23 02:36:28;;;;;;;20.45;3.30;;;5.70;99.90;;;;;;5076849;28;20471;-61
2024/01/23 02:38:53;;;;;;;19.17;3.40;;;5.70;99.90;;;;;;5077068;28;20044;-61
2024/01/23 02:41:19;;;;;;;22.73;3.42;;;5.70;99.90;;;;;;5085858;28;20089;-61
2024/01/23 02:43:45;;;;;;;21.60;3.10;;;5.60;99.90;;;;;;5096492;28;20122;-61
2024/01/23 02:46:10;;;;;;;16.38;2.75;;;5.60;99.90;;;;;;5096167;28;20044;-61
2024/01/23 02:48:36;;;;;;;18.35;2.80;;;5.60;99.90;;;;;;5095948;28;20054;-62
2024/01/23 02:51:02;;;;;;;17.45;2.90;;;5.60;99.90;;;;;;5096062;28;20040;-61
2024/01/23 02:53:27;;;;;;;18.13;3.53;;;5.60;99.90;;;;;;5095342;28;20065;-61
2024/01/23 02:55:53;;;;;;;22.90;3.58;;;5.60;99.90;;;;;;5096140;28;20040;-62
2024/01/23 02:58:20;;;;;;;15.77;3.45;;;5.60;99.90;;;;;;5097544;28;20111;-61
2024/01/23 03:00:46;;;;;;;17.17;3.20;;;5.50;99.90;;;;;;5096021;28;20047;-62
2024/01/23 03:03:12;;;;;;;25.42;4.40;;;5.50;99.90;;;;;;5095705;28;20047;-62
2024/01/23 03:05:37;;;;;;;19.40;3.38;;;5.50;99.90;;;;;;5097105;28;20395;-61
2024/01/23 03:08:04;;;;;;;27.08;3.10;;;5.50;99.90;;;;;;5095726;28;20394;-61
2024/01/23 03:10:30;;;;;;;27.30;5.43;;;5.60;99.90;;;;;;5095680;28;20047;-62
2024/01/23 03:12:55;;;;;;;13.02;2.65;;;5.60;99.90;;;;;;5097247;28;20040;-62
2024/01/23 03:15:21;;;;;;;22.92;3.10;;;5.70;99.90;;;;;;5095771;28;20036;-62
2024/01/23 03:17:47;;;;;;;21.38;4.03;;;5.70;99.90;;;;;;5097097;28;20124;-61
2024/01/23 03:20:12;;;;;;;20.70;3.88;;;5.70;99.90;;;;;;5095760;28;20039;-61
2024/01/23 03:22:38;;;;;;;18.35;2.90;;;5.70;99.90;;;;;;5096787;28;20113;-62
2024/01/23 03:25:05;;;;;;;19.17;3.50;;;5.70;99.90;;;;;;5095580;28;20044;-62
2024/01/23 03:27:31;;;;;;;18.65;3.33;;;5.80;99.90;;;;;;5095260;28;20048;-61
2024/01/23 03:29:57;;;;;;;20.67;3.92;;;5.80;99.90;;;;;;5095638;28;20055;-62
2024/01/23 03:32:23;;;;;;;19.98;3.25;;;5.90;99.90;;;;;;5095365;28;20052;-61
2024/01/23 03:34:49;;;;;;;23.88;4.15;;;5.90;99.90;;;;;;5097027;28;20063;-62
2024/01/23 03:37:15;;;;;;;22.02;3.47;;;5.90;99.90;;;;;;5096974;28;20117;-61
2024/01/23 03:39:41;;;;;;;21.55;4.07;;;6.00;99.90;;;;;;5095208;28;20083;-62
2024/01/23 03:42:07;;;;;;;18.45;3.40;;;6.00;99.90;;;;;;5094645;28;20036;-61
2024/01/23 03:44:33;;;;;;;19.73;3.22;;;6.00;99.90;;;;;;5093497;28;20036;-61
2024/01/23 03:46:58;;;;;;;24.90;3.72;;;6.10;99.90;;;;;;5093550;28;20440;-62
2024/01/23 03:49:24;;;;;;;18.02;3.15;;;6.10;99.90;;;;;;5093356;28;20036;-61
2024/01/23 03:51:50;;;;;;;19.08;2.88;;;6.10;99.90;;;;;;5093629;28;20029;-61
2024/01/23 03:54:16;;;;;;;23.35;4.20;;;6.10;99.90;;;;;;5093583;28;20032;-62
2024/01/23 03:56:42;;;;;;;22.10;3.97;;;6.20;99.90;;;;;;5093227;28;20043;-62
2024/01/23 03:59:08;;;;;;;19.33;4.35;;;6.20;99.90;;;;;;5091986;28;20348;-62
2024/01/23 04:01:34;;;;;;;22.13;3.42;;;6.20;99.90;;;;;;5091842;28;20043;-61
2024/01/23 04:03:59;;;;;;;19.83;3.40;;;6.20;99.90;;;;;;5093453;28;20046;-61
2024/01/23 04:06:25;;;;;;;20.10;4.05;;;6.20;99.90;;;;;;5092971;28;20079;-61
2024/01/23 04:08:51;;;;;;;18.55;3.20;;;6.20;99.90;;;;;;5093042;28;20040;-62
2024/01/23 04:11:16;;;;;;;19.88;3.40;;;6.20;99.90;;;;;;5093032;28;20051;-61
2024/01/23 04:13:42;;;;;;;18.08;3.50;;;6.20;99.90;;;;;;5092804;28;20055;-61
2024/01/23 04:16:08;;;;;;;22.45;4.38;;;6.20;99.90;;;;;;5093124;28;20036;-61
2024/01/23 04:18:34;;;;;;;23.42;3.88;;;6.20;99.90;;;;;;5092862;28;20044;-62
2024/01/23 04:21:00;;;;;;;23.55;5.60;;;6.20;99.90;;;;;;5092885;28;20074;-62
2024/01/23 04:23:26;;;;;;;21.02;4.13;;;6.20;99.90;;;;;;5091623;28;20090;-61
2024/01/23 04:25:52;;;;;;;18.85;4.15;;;6.20;99.90;;;;;;5082553;28;20509;-61
2024/01/23 04:28:17;;;;;;;17.98;2.80;;;6.20;99.90;;;;;;5071041;28;20041;-61
2024/01/23 04:30:43;;;;;;;17.70;3.63;;;6.20;99.90;;;;;;5072313;28;20090;-61
2024/01/23 04:33:09;;;;;;;22.70;4.07;;;6.20;99.90;;;;;;5072559;28;20540;-62
2024/01/23 04:35:35;;;;;;;22.05;4.43;;;6.20;99.90;;;;;;5070949;28;20063;-61
2024/01/23 04:38:01;;;;;;;23.75;3.80;;;6.20;99.90;;;;;;5072137;28;20028;-62
2024/01/23 04:40:27;;;;;;;18.92;3.28;;;6.20;99.90;;;;;;5072336;28;20046;-61
2024/01/23 04:42:52;;;;;;;24.38;4.20;;;6.20;99.90;;;;;;5070811;28;20041;-61
2024/01/23 04:45:18;;;;;;;21.65;4.05;;;6.30;99.90;;;;;;5072214;28;20040;-61
2024/01/23 04:47:43;;;;;;;22.85;4.28;;;6.30;99.90;;;;;;5070640;28;20048;-61
2024/01/23 04:50:10;;;;;;;19.83;3.72;;;6.30;99.90;;;;;;5072125;28;20043;-62
2024/01/23 04:52:35;;;;;;;22.30;3.65;;;6.30;99.90;;;;;;5070530;28;20036;-61
2024/01/23 04:55:02;;;;;;;21.98;3.50;;;6.30;99.90;;;;;;5070362;28;20086;-61
2024/01/23 04:57:31;;;;;;;16.42;3.47;;;6.30;99.90;;;;;;5072007;28;20071;-61
2024/01/23 05:00:04;;;;;;;25.15;4.85;;;6.30;99.90;;;;;;5071675;28;20080;-61
2024/01/23 05:02:30;;;;;;;24.00;3.17;;;6.30;99.90;;;;;;5070637;28;20044;-62
2024/01/23 05:04:56;;;;;;;20.45;3.60;;;6.30;99.90;;;;;;5071641;28;20093;-62
2024/01/23 05:07:21;;;;;;;24.23;3.90;;;6.30;99.90;;;;;;5070284;28;20434;-62
2024/01/23 05:09:47;;;;;;;25.75;4.95;;;6.30;99.90;;;;;;5071506;28;20044;-61
2024/01/23 05:12:13;;;;;;;21.67;3.92;;;6.30;99.90;;;;;;5071744;28;20134;-62
2024/01/23 05:14:38;;;;;;;22.75;4.35;;;6.30;99.90;;;;;;5071680;28;20041;-62
2024/01/23 05:17:04;;;;;;;26.20;5.15;;;6.30;99.90;;;;;;5071313;28;20519;-62
2024/01/23 05:19:30;;;;;;;19.80;3.45;;;6.30;99.90;;;;;;5071858;28;20498;-62
2024/01/23 05:21:56;;;;;;;28.33;6.03;;;6.30;99.90;;;;;;5071229;28;20044;-61
2024/01/23 05:24:22;;;;;;;28.35;4.75;;;6.30;99.90;;;;;;5071350;28;20043;-62
2024/01/23 05:26:47;;;;;;;28.95;4.38;;;6.30;99.90;;;;;;5071222;28;20044;-61
2024/01/23 05:29:13;;;;;;;28.83;4.15;;;6.30;99.90;;;;;;5069837;28;20056;-62
2024/01/23 05:31:39;;;;;;;19.25;4.30;;;6.30;99.90;;;;;;5069872;28;20064;-62
2024/01/23 05:34:04;;;;;;;21.67;3.70;;;6.30;99.90;;;;;;5071020;28;20410;-61
2024/01/23 05:36:30;;;;;;;20.17;4.78;;;6.20;99.90;;;;;;5071122;28;20127;-61
2024/01/23 05:38:56;;;;;;;22.45;3.97;;;6.20;99.90;;;;;;5069806;28;20047;-61
2024/01/23 05:41:21;;;;;;;24.30;4.70;;;6.20;99.90;;;;;;5071059;28;20483;-62
2024/01/23 05:43:47;;;;;;;26.50;3.70;;;6.20;99.90;;;;;;5071020;28;20039;-62
2024/01/23 05:46:13;;;;;;;22.58;4.45;;;6.20;99.90;;;;;;5052967;28;20102;-62
2024/01/23 05:48:39;;;;;;;25.58;4.28;;;6.30;99.90;;;;;;5071049;28;20048;-61
2024/01/23 05:51:04;;;;;;;28.92;3.92;;;6.20;99.90;;;;;;5070643;28;20037;-62
2024/01/23 05:53:30;;;;;;;26.65;4.45;;;6.20;99.90;;;;;;5071226;28;20395;-61
2024/01/23 05:55:56;;;;;;;23.35;4.63;;;6.20;99.90;;;;;;5069818;28;20123;-62
2024/01/23 05:58:21;;;;;;;24.85;4.75;;;6.20;99.90;;;;;;5070976;28;20045;-61
2024/01/23 06:00:47;;;;;;;24.30;3.97;;;6.20;99.90;;;;;;5069642;28;20454;-61
2024/01/23 06:03:12;;;;;;;25.17;4.07;;;6.20;99.90;;;;;;5070601;28;20067;-61
2024/01/23 06:05:38;;;;;;;30.00;4.47;;;6.20;99.90;;;;;;5068908;28;20048;-61
2024/01/23 06:08:04;;;;;;;25.52;5.00;;;6.20;99.90;;;;;;5069034;28;20049;-62
2024/01/23 06:10:30;;;;;;;25.70;4.25;;;6.30;99.90;;;;;;5069894;28;20032;-62
2024/01/23 06:12:55;;;;;;;26.08;4.80;;;6.30;99.90;;;;;;5070704;28;20032;-62
2024/01/23 06:15:21;;;;;;;26.60;4.93;;;6.30;99.90;;;;;;5070665;28;20033;-61
2024/01/23 06:17:47;;;;;;;23.77;3.90;;;6.30;99.90;;;;;;5070729;28;20131;-62
2024/01/23 06:20:15;;;;;;;23.65;4.35;;;6.30;99.90;;;;;;5070255;28;20037;-62
2024/01/23 06:22:41;;;;;;;25.67;4.45;;;6.30;99.90;;;;;;5069336;28;20056;-61
2024/01/23 06:25:08;;;;;;;22.88;4.30;;;6.30;99.90;;;;;;5052458;28;20078;-61
2024/01/23 06:27:35;;;;;;;26.83;4.05;;;6.30;99.90;;;;;;5070321;28;20137;-61
2024/01/23 06:30:01;;;;;;;35.15;5.43;;;6.30;99.90;;;;;;5070730;28;20044;-61
2024/01/23 06:32:28;;;;;;;28.65;4.93;;;6.30;99.90;;;;;;5070585;28;20032;-61
2024/01/23 06:34:53;;;;;;;25.73;4.03;;;6.20;99.90;;;;;;5069334;28;20051;-61
2024/01/23 06:37:20;;;;;;;29.70;4.93;;;6.20;99.90;;;;;;5070152;28;20045;-61
2024/01/23 06:39:46;;;;;;;31.65;5.47;;;6.20;99.90;;;;;;5069137;28;20070;-62
2024/01/23 06:42:12;;;;;;;24.10;4.65;;;6.20;99.90;;;;;;5070250;28;20036;-61
2024/01/23 06:44:39;;;;;;;26.10;4.85;;;6.20;99.90;;;;;;5069369;28;20365;-62
2024/01/23 06:47:05;;;;;;;24.58;4.10;;;6.20;99.90;;;;;;5069126;28;20487;-62
2024/01/23 06:49:30;;;;;;;28.50;4.43;;;6.20;99.90;;;;;;5070581;28;20568;-61
2024/01/23 06:51:56;;;;;;;32.00;5.80;;;6.10;99.90;;;;;;5068956;28;20049;-61
2024/01/23 06:54:22;;;;;;;27.58;4.72;;;6.10;99.90;;;;;;5068664;28;20922;-61
2024/01/23 06:56:47;;;;;;;29.27;4.53;;;6.10;99.90;;;;;;5052156;28;20071;-62
2024/01/23 06:59:13;;;;;;;24.10;4.85;;;6.10;99.90;;;;;;5088218;28;20036;-62
2024/01/23 07:01:39;;;;;;;29.05;4.68;;;6.10;99.90;;;;;;5090558;28;20475;-61
2024/01/23 07:04:05;;;;;;;22.83;4.85;;;6.00;99.90;;;;;;5089106;28;20514;-61
2024/01/23 07:06:31;;;;;;;28.70;5.05;;;6.00;99.90;;;;;;5088947;28;20051;-61
2024/01/23 07:08:57;;;;;;;27.02;4.75;;;6.00;99.90;;;;;;5089050;28;20032;-61
2024/01/23 07:11:23;;;;;;;24.60;4.57;;;5.90;99.90;;;;;;5088685;28;20378;-60
2024/01/23 07:13:49;;;;;;;34.15;4.45;;;5.90;99.90;;;;;;5089123;28;20028;-61
2024/01/23 07:16:15;;;;;;;29.63;4.35;;;5.80;99.90;;;;;;5090017;28;20032;-61
2024/01/23 07:18:41;;;;;;;26.30;4.57;;;5.80;99.90;;;;;;5092732;28;20036;-61
2024/01/23 07:21:06;;;;;;;27.92;4.85;;;5.70;99.90;;;;;;5092896;28;20043;-61
2024/01/23 07:23:34;;;;;;;29.48;5.70;;;5.70;99.90;;;;;;5092352;28;20090;-61
2024/01/23 07:25:59;;;;;;;27.27;4.55;;;5.70;99.90;;;;;;5092723;28;20042;-62
2024/01/23 07:28:25;;;;;;;30.27;5.47;;;5.60;99.90;;;;;;5093461;28;20134;-61
2024/01/23 07:30:52;;;;;;;36.42;4.93;;;5.50;99.90;;;;;;5094025;28;20103;-61
2024/01/23 07:33:17;;;;;;;24.25;4.50;;;5.50;99.90;;;;;;5093573;28;20406;-61
2024/01/23 07:35:43;;;;;;;27.70;4.38;;;5.40;99.90;;;;;;5093930;28;20036;-61
2024/01/23 07:38:11;;;;;;;34.10;5.50;;;5.40;99.90;;;;;;5093952;28;20128;-62
2024/01/23 07:40:41;;;;;;;25.48;4.68;;;5.40;99.90;;;;;;5092195;28;20052;-61
2024/01/23 07:43:07;;;;;;;27.75;5.32;;;5.40;99.90;;;;;;5092396;28;20036;-61
2024/01/23 07:45:33;;;;;;;29.13;4.50;;;5.40;99.90;;;;;;5092196;28;20055;-61
2024/01/23 07:47:59;;;;;;;27.80;5.68;;;5.40;99.90;;;;;;5074863;28;20132;-61
2024/01/23 07:50:24;;;;;;;31.35;5.18;;;5.40;99.90;;;;;;5092034;28;20535;-62
2024/01/23 07:52:50;;;;;;;26.92;4.80;;;5.40;99.90;;;;;;5091879;28;20058;-60
2024/01/23 07:55:16;;;;;;;24.30;4.82;;;5.40;99.90;;;;;;5093317;28;20032;-61
2024/01/23 07:57:42;;;;;;;27.80;5.85;;;5.40;99.90;;;;;;5093371;28;20482;-61
2024/01/23 08:00:07;;;;;;;26.80;4.75;;;5.30;99.90;;;;;;5091782;28;20048;-61
2024/01/23 08:02:33;;;;;;;27.30;5.00;;;5.30;99.90;;;;;;5092951;28;20044;-62
2024/01/23 08:05:03;;;;;;;29.42;4.95;;;5.30;99.90;;;;;;5092263;28;20035;-61
2024/01/23 08:07:29;;;;;;;26.58;4.82;;;5.30;99.90;;;;;;5092854;28;20081;-61
2024/01/23 08:09:54;;;;;;;32.72;5.03;;;5.30;99.90;;;;;;5091944;28;20032;-62
2024/01/23 08:12:20;;;;;;;27.50;4.75;;;5.20;99.90;;;;;;5091626;28;20592;-62
2024/01/23 08:14:45;;;;;;;30.25;5.10;;;5.30;99.90;;;;;;5091931;28;20044;-62
2024/01/23 08:17:11;;;;;;;35.13;5.57;;;5.20;99.90;;;;;;5091927;28;20048;-61
2024/01/23 08:19:39;;;;;;;25.25;5.05;;;5.20;99.90;;;;;;5093196;28;20123;-61
2024/01/23 08:22:05;;;;;;;33.75;6.20;;;5.20;99.90;;;;;;5091777;28;20040;-62
2024/01/23 08:24:31;;;;;;;29.42;5.05;;;5.20;99.90;;;;;;5092778;28;20054;-62
2024/01/23 08:26:57;;;;;;;30.63;4.47;;;5.20;99.90;;;;;;5091358;28;20044;-61
2024/01/23 08:29:23;;;;;;;26.92;4.28;;;5.30;99.90;;;;;;5090382;28;20052;-62
2024/01/23 08:31:49;;;;;;;34.28;4.70;;;5.30;99.90;;;;;;5092521;28;20093;-62
2024/01/23 08:34:15;;;;;;;24.70;4.05;;;5.30;99.90;;;;;;5092968;28;20032;-61
2024/01/23 08:36:41;;;;;;;29.00;4.25;;;5.30;99.90;;;;;;5090927;28;20085;-61
2024/01/23 08:39:07;;;;;;;32.28;4.82;;;5.30;99.90;;;;;;5091453;28;20390;-61
2024/01/23 08:41:33;;;;;;;31.65;4.82;;;5.30;99.90;;;;;;5091123;28;20058;-61
2024/01/23 08:43:59;;;;;;;32.92;5.57;;;5.40;99.90;;;;;;5091069;28;20040;-61
2024/01/23 08:46:25;;;;;;;26.52;4.57;;;5.40;99.90;;;;;;5092393;28;20455;-62
2024/01/23 08:48:50;;;;;;;25.77;4.57;;;5.40;99.90;;;;;;5092384;28;20513;-62
2024/01/23 08:51:16;;;;;;;29.35;5.68;;;5.40;99.90;;;;;;5091065;28;20061;-62
2024/01/23 08:53:42;;;;;;;33.03;6.07;;;5.50;99.90;;;;;;5091137;28;20432;-61
2024/01/23 08:56:08;;;;;;;29.75;6.40;;;5.60;99.90;;;;;;5092359;28;20043;-61
2024/01/23 08:58:33;;;;;;;28.75;5.63;;;5.60;99.90;;;;;;5091164;28;20044;-61
2024/01/23 09:00:59;;;;;;;28.15;5.43;;;5.60;99.90;;;;;;5090349;28;20044;-61
2024/01/23 09:03:25;;;;;;;29.23;7.00;;;5.60;99.90;;;;;;5091356;28;20490;-61
2024/01/23 09:05:50;;;;;;;38.50;5.90;;;5.70;99.90;;;;;;5090697;28;20416;-61
2024/01/23 09:08:16;;;;;;;25.23;5.85;;;5.70;99.90;;;;;;5092013;28;20398;-62
2024/01/23 09:10:42;;;;;;;30.38;5.22;;;5.70;99.90;;;;;;5090464;28;20074;-61
2024/01/23 09:13:08;;;;;;;31.55;5.55;;;5.80;99.90;;;;;;5092179;28;20053;-60
2024/01/23 09:15:35;;;;;;;34.08;6.00;;;5.80;99.90;;;;;;5092130;28;20040;-61
2024/01/23 09:18:00;;;;;;;24.13;4.70;;;5.80;99.90;;;;;;5091974;28;20047;-61
2024/01/23 09:20:26;;;;;;;27.55;4.32;;;5.90;99.90;;;;;;5091956;28;20449;-62
2024/01/23 09:22:52;;;;;;;38.25;6.45;;;6.00;99.90;;;;;;5091488;28;20072;-61
2024/01/23 09:25:21;;;;;;;29.70;5.70;;;6.00;99.90;;;;;;5091799;28;20135;-61
2024/01/23 09:27:48;;;;;;;33.33;5.05;;;6.10;99.90;;;;;;5091111;28;20403;-61
2024/01/23 09:30:14;;;;;;;28.88;5.25;;;6.20;99.90;;;;;;5090484;28;20440;-61
2024/01/23 09:32:40;;;;;;;31.30;5.45;;;6.20;99.90;;;;;;5090324;28;20040;-61
2024/01/23 09:35:06;;;;;;;34.03;7.20;;;6.30;99.90;;;;;;5091631;28;20085;-62
2024/01/23 09:37:32;;;;;;;38.75;6.22;;;6.40;99.90;;;;;;5090478;28;20056;-62
2024/01/23 09:39:58;;;;;;;33.42;6.43;;;6.50;99.90;;;;;;5090483;28;20082;-61
2024/01/23 09:42:25;;;;;;;34.55;5.50;;;6.70;99.90;;;;;;5091419;28;20047;-61
2024/01/23 09:44:53;;;;;;;31.08;4.93;;;6.80;99.90;;;;;;5089680;28;20060;-62
2024/01/23 09:47:23;;;;;;;25.90;5.18;;;6.90;99.90;;;;;;5090017;28;20093;-62
2024/01/23 09:49:51;;;;;;;29.27;4.65;;;7.10;99.90;;;;;;5091331;28;20036;-62
2024/01/23 09:52:18;;;;;;;27.98;4.30;;;7.20;99.90;;;;;;5089870;28;20105;-62
2024/01/23 09:54:45;;;;;;;36.92;6.47;;;7.30;99.90;;;;;;5091077;28;20047;-61
2024/01/23 09:57:11;;;;;;;31.77;4.88;;;7.40;99.90;;;;;;5089803;28;20044;-61
2024/01/23 09:59:38;;;;;;;28.05;4.65;;;7.50;99.90;;;;;;5090096;28;20551;-62
2024/01/23 10:02:05;;;;;;;28.63;5.07;;;7.50;99.90;;;;;;5089520;28;20043;-61
2024/01/23 10:04:33;;;;;;;28.70;5.07;;;7.70;99.90;;;;;;5091153;28;20050;-61
2024/01/23 10:07:07;;;;;;;32.35;5.03;;;7.70;99.90;;;;;;5090690;28;20043;-61
2024/01/23 10:09:33;;;;;;;25.67;4.30;;;7.80;99.90;;;;;;5089703;28;20047;-62
2024/01/23 10:11:59;;;;;;;24.02;4.32;;;8.00;99.90;;;;;;5089409;28;20403;-62
2024/01/23 10:14:25;;;;;;;32.13;5.32;;;8.00;99.90;;;;;;5089771;28;20066;-62
2024/01/23 10:16:50;;;;;;;25.35;5.07;;;8.10;99.90;;;;;;5089018;28;20048;-62
2024/01/23 10:19:16;;;;;;;25.50;4.68;;;8.10;99.90;;;;;;5089430;28;20054;-61
2024/01/23 10:21:42;;;;;;;28.02;5.75;;;8.10;99.90;;;;;;5090940;28;20035;-61
2024/01/23 10:24:08;;;;;;;28.58;5.10;;;8.10;99.90;;;;;;5090387;28;20043;-61
2024/01/23 10:26:34;;;;;;;29.70;5.28;;;8.00;99.90;;;;;;5090762;28;20483;-62
2024/01/23 10:29:04;;;;;;;34.70;4.53;;;8.00;99.90;;;;;;5090549;28;20113;-61
2024/01/23 10:31:29;;;;;;;32.83;5.50;;;8.10;99.90;;;;;;5089478;28;20044;-61
2024/01/23 10:33:57;;;;;;;28.67;4.97;;;8.20;99.90;;;;;;5090599;28;20055;-61
2024/01/23 10:36:23;;;;;;;30.10;5.05;;;8.20;99.90;;;;;;5090665;28;20420;-61
2024/01/23 10:38:50;;;;;;;22.25;4.95;;;8.30;99.90;;;;;;5090635;28;20464;-61
2024/01/23 10:41:18;;;;;;;28.38;5.10;;;8.40;99.90;;;;;;5090780;28;20483;-61
2024/01/23 10:43:46;;;;;;;24.50;4.47;;;8.60;99.90;;;;;;5090729;28;20122;-61
2024/01/23 10:46:12;;;;;;;32.35;5.78;;;8.60;99.90;;;;;;5089001;28;20097;-62
2024/01/23 10:48:38;;;;;;;23.13;4.75;;;8.60;99.90;;;;;;5089299;28;20036;-62
2024/01/23 10:51:17;;;;;;;28.23;5.43;;;8.70;99.90;;;;;;5089103;28;20068;-62
2024/01/23 10:53:59;;;;;;;27.80;4.78;;;8.80;99.90;;;;;;5093433;28;20032;-61
2024/01/23 10:56:28;;;;;;;26.38;4.95;;;9.00;99.90;;;;;;5093302;28;20078;-61
2024/01/23 10:59:07;;;;;;;26.92;5.15;;;9.20;99.90;;;;;;5093281;28;20040;-61
2024/01/23 11:01:36;;;;;;;24.92;4.75;;;9.30;99.90;;;;;;5094476;28;20036;-61
2024/01/23 11:04:02;;;;;;;23.80;4.30;;;9.20;99.90;;;;;;5094236;28;20040;-61
2024/01/23 11:06:34;;;;;;;25.38;4.47;;;9.10;99.90;;;;;;5094395;28;20039;-62
2024/01/23 11:09:08;;;;;;;25.50;5.38;;;9.10;99.90;;;;;;5094463;28;20093;-62
2024/01/23 11:11:49;;;;;;;21.17;4.47;;;9.30;99.90;;;;;;5094389;28;20036;-62
2024/01/23 11:14:25;;;;;;;29.40;4.95;;;9.40;99.90;;;;;;5093941;28;20130;-62
2024/01/23 11:17:08;;;;;;;25.83;4.80;;;9.20;99.90;;;;;;5094386;28;20131;-62
2024/01/23 11:19:39;;;;;;;26.67;5.90;;;9.00;99.90;;;;;;5094266;28;20372;-61
2024/01/23 11:22:04;;;;;;;22.70;4.03;;;8.80;99.90;;;;;;5076209;28;20036;-62
2024/01/23 11:24:43;;;;;;;26.25;5.13;;;8.70;99.90;;;;;;5092141;28;20058;-61
2024/01/23 11:27:18;;;;;;;21.65;4.07;;;8.70;99.90;;;;;;5092727;28;20570;-62
2024/01/23 11:29:46;;;;;;;23.10;4.13;;;8.70;99.90;;;;;;5093892;28;20040;-62
2024/01/23 11:32:25;;;;;;;22.35;4.00;;;8.50;99.90;;;;;;5092901;28;20042;-61
2024/01/23 11:35:07;;;;;;;28.17;5.57;;;8.50;99.90;;;;;;5093975;28;20397;-61
2024/01/23 11:37:38;;;;;;;25.38;4.80;;;8.40;99.90;;;;;;5092654;28;20372;-61
2024/01/23 11:40:05;;;;;;;26.83;4.32;;;8.30;99.90;;;;;;5092591;28;20040;-61
2024/01/23 11:42:37;;;;;;;23.88;4.65;;;8.30;99.90;;;;;;5093577;28;20101;-63
2024/01/23 11:45:28;;;;;;;27.20;5.10;;;8.30;99.90;;;;;;5092449;28;20042;-61
2024/01/23 11:47:58;;;;;;;27.63;4.68;;;8.30;99.90;;;;;;5092288;28;20036;-61
2024/01/23 11:50:26;;;;;;;34.55;4.75;;;8.30;99.90;;;;;;5093564;28;20047;-61
2024/01/23 11:52:54;;;;;;;25.83;4.35;;;8.30;99.90;;;;;;5093658;28;20067;-62
2024/01/23 11:55:20;;;;;;;25.33;4.95;;;8.50;99.90;;;;;;5093670;28;20039;-61
2024/01/23 11:57:50;;;;;;;25.00;5.53;;;8.60;99.90;;;;;;5064978;28;20041;-62
2024/01/23 12:00:18;;;;;;;25.85;4.60;;;8.80;99.90;;;;;;5072057;28;20495;-61
2024/01/23 12:02:44;;;;;;;27.60;4.55;;;9.20;99.90;;;;;;5072642;28;20040;-61
2024/01/23 12:05:11;;;;;;;27.30;5.38;;;9.40;99.90;;;;;;5071422;28;20161;-61
2024/01/23 12:07:39;;;;;;;21.05;4.18;;;9.50;99.90;;;;;;5072662;28;20040;-62
2024/01/23 12:10:13;;;;;;;25.88;4.90;;;9.60;99.90;;;;;;5071836;28;20044;-62
2024/01/23 12:12:40;;;;;;;25.48;5.00;;;9.70;99.90;;;;;;5072652;28;20044;-62
2024/01/23 12:15:07;;;;;;;28.00;4.75;;;10.10;99.90;;;;;;5071707;28;20072;-62
2024/01/23 12:17:34;;;;;;;25.33;4.20;;;10.40;99.90;;;;;;5071342;28;20048;-61
2024/01/23 12:20:09;;;;;;;17.40;4.60;;;10.40;99.90;;;;;;5072947;28;20407;-62
2024/01/23 12:22:36;;;;;;;24.73;4.20;;;10.30;99.90;;;;;;5071354;28;20106;-61
2024/01/23 12:25:03;;;;;;;23.42;5.20;;;10.30;99.90;;;;;;5072663;28;20045;-62
2024/01/23 12:27:30;;;;;;;28.23;4.40;;;10.20;99.90;;;;;;5072523;28;20036;-62
2024/01/23 12:29:56;;;;;;;25.73;4.60;;;10.10;99.90;;;;;;5064424;28;20053;-61
2024/01/23 12:32:27;;;;;;;18.67;4.03;;;10.20;99.90;;;;;;5072752;28;20094;-62
2024/01/23 12:34:52;;;;;;;27.30;5.55;;;10.30;99.90;;;;;;5071202;28;20127;-61
2024/01/23 12:37:18;;;;;;;33.55;5.72;;;10.40;99.90;;;;;;5071233;28;20116;-62
2024/01/23 12:39:43;;;;;;;22.58;4.88;;;10.90;99.90;;;;;;5071106;28;20044;-62
2024/01/23 12:42:09;;;;;;;22.75;4.55;;;11.20;99.90;;;;;;5071085;28;20119;-61